sensor_id;sensor_type;location;lat;lon;timestamp;pressure;altitude;pressure_sealevel;temperature
12854;BMP180;6495;51.808;7.478;2023-03-01T00:01:36;102451.00;;;0.50
12854;BMP180;6495;51.808;7.478;2023-03-01T00:04:04;102451.00;;;0.50
12854;BMP180;6495;51.808;7.478;2023-03-01T00:06:32;102457.00;;;0.50
12854;BMP180;6495;51.808;7.478;2023-03-01T00:09:00;102449.00;;;0.50
12854;BMP180;6495;51.808;7.478;2023-03-01T00:11:31;102443.00;;;0.40
12854;BMP180;6495;51.808;7.478;2023-03-01T00:14:01;102442.00;;;0.40
12854;BMP180;6495;51.808;7.478;2023-03-01T00:16:36;102440.00;;;0.40
12854;BMP180;6495;51.808;7.478;2023-03-01T00:19:07;102436.00;;;0.40
12854;BMP180;6495;51.808;7.478;2023-03-01T00:21:35;102437.00;;;0.40
12854;BMP180;6495;51.808;7.478;2023-03-01T00:24:04;102442.00;;;0.30
12854;BMP180;6495;51.808;7.478;2023-03-01T00:26:32;102439.00;;;0.30
12854;BMP180;6495;51.808;7.478;2023-03-01T00:29:01;102430.00;;;0.40
12854;BMP180;6495;51.808;7.478;2023-03-01T00:31:32;102431.00;;;0.40
12854;BMP180;6495;51.808;7.478;2023-03-01T00:34:04;102437.00;;;0.40
12854;BMP180;6495;51.808;7.478;2023-03-01T00:36:35;102432.00;;;0.30
12854;BMP180;6495;51.808;7.478;2023-03-01T00:39:09;102428.00;;;0.30
12854;BMP180;6495;51.808;7.478;2023-03-01T00:41:38;102428.00;;;0.20
12854;BMP180;6495;51.808;7.478;2023-03-01T00:44:08;102431.00;;;0.20
12854;BMP180;6495;51.808;7.478;2023-03-01T00:46:37;102430.00;;;0.20
12854;BMP180;6495;51.808;7.478;2023-03-01T00:49:07;102427.00;;;0.20
12854;BMP180;6495;51.808;7.478;2023-03-01T00:51:35;102422.00;;;0.10
12854;BMP180;6495;51.808;7.478;2023-03-01T00:54:04;102425.00;;;0.10
12854;BMP180;6495;51.808;7.478;2023-03-01T00:56:32;102422.00;;;0.10
12854;BMP180;6495;51.808;7.478;2023-03-01T00:59:00;102411.00;;;0.00
12854;BMP180;6495;51.808;7.478;2023-03-01T01:01:30;102402.00;;;0.00
12854;BMP180;6495;51.808;7.478;2023-03-01T01:04:02;102410.00;;;-0.10
12854;BMP180;6495;51.808;7.478;2023-03-01T01:06:34;102420.00;;;-0.10
12854;BMP180;6495;51.808;7.478;2023-03-01T01:09:05;102403.00;;;-0.20
12854;BMP180;6495;51.808;7.478;2023-03-01T01:11:35;102407.00;;;-0.20
12854;BMP180;6495;51.808;7.478;2023-03-01T01:14:04;102407.00;;;-0.20
12854;BMP180;6495;51.808;7.478;2023-03-01T01:16:32;102400.00;;;-0.20
12854;BMP180;6495;51.808;7.478;2023-03-01T01:19:01;102397.00;;;-0.20
12854;BMP180;6495;51.808;7.478;2023-03-01T01:21:31;102405.00;;;-0.20
12854;BMP180;6495;51.808;7.478;2023-03-01T01:24:00;102395.00;;;-0.20
12854;BMP180;6495;51.808;7.478;2023-03-01T01:26:33;102401.00;;;-0.30
12854;BMP180;6495;51.808;7.478;2023-03-01T01:29:04;102410.00;;;-0.20
12854;BMP180;6495;51.808;7.478;2023-03-01T01:31:34;102403.00;;;-0.20
12854;BMP180;6495;51.808;7.478;2023-03-01T01:34:05;102398.00;;;-0.30
12854;BMP180;6495;51.808;7.478;2023-03-01T01:36:36;102405.00;;;-0.30
12854;BMP180;6495;51.808;7.478;2023-03-01T01:39:04;102394.00;;;-0.30
12854;BMP180;6495;51.808;7.478;2023-03-01T01:41:32;102378.00;;;-0.30
12854;BMP180;6495;51.808;7.478;2023-03-01T01:44:15;102371.00;;;-0.30
12854;BMP180;6495;51.808;7.478;2023-03-01T01:46:47;102387.00;;;-0.30
12854;BMP180;6495;51.808;7.478;2023-03-01T01:49:24;102374.00;;;-0.30
12854;BMP180;6495;51.808;7.478;2023-03-01T01:52:04;102395.00;;;-0.30
12854;BMP180;6495;51.808;7.478;2023-03-01T01:54:41;102389.00;;;-0.40
12854;BMP180;6495;51.808;7.478;2023-03-01T01:57:16;102375.00;;;-0.40
12854;BMP180;6495;51.808;7.478;2023-03-01T01:59:51;102375.00;;;-0.40
12854;BMP180;6495;51.808;7.478;2023-03-01T02:02:20;102369.00;;;-0.50
12854;BMP180;6495;51.808;7.478;2023-03-01T02:04:54;102359.00;;;-0.60
12854;BMP180;6495;51.808;7.478;2023-03-01T02:07:28;102369.00;;;-0.60
12854;BMP180;6495;51.808;7.478;2023-03-01T02:09:56;102364.00;;;-0.60
12854;BMP180;6495;51.808;7.478;2023-03-01T02:12:26;102368.00;;;-0.60
12854;BMP180;6495;51.808;7.478;2023-03-01T02:14:54;102365.00;;;-0.60
12854;BMP180;6495;51.808;7.478;2023-03-01T02:17:22;102364.00;;;-0.60
12854;BMP180;6495;51.808;7.478;2023-03-01T02:20:06;102350.00;;;-0.60
12854;BMP180;6495;51.808;7.478;2023-03-01T02:22:43;102354.00;;;-0.70
12854;BMP180;6495;51.808;7.478;2023-03-01T02:25:31;102349.00;;;-0.70
12854;BMP180;6495;51.808;7.478;2023-03-01T02:28:10;102354.00;;;-0.70
12854;BMP180;6495;51.808;7.478;2023-03-01T02:30:42;102344.00;;;-0.70
12854;BMP180;6495;51.808;7.478;2023-03-01T02:33:26;102345.00;;;-0.70
12854;BMP180;6495;51.808;7.478;2023-03-01T02:35:55;102341.00;;;-0.70
12854;BMP180;6495;51.808;7.478;2023-03-01T02:38:24;102350.00;;;-0.70
12854;BMP180;6495;51.808;7.478;2023-03-01T02:40:54;102352.00;;;-0.70
12854;BMP180;6495;51.808;7.478;2023-03-01T02:43:29;102349.00;;;-0.70
12854;BMP180;6495;51.808;7.478;2023-03-01T02:46:08;102356.00;;;-0.70
12854;BMP180;6495;51.808;7.478;2023-03-01T02:48:45;102352.00;;;-0.70
12854;BMP180;6495;51.808;7.478;2023-03-01T02:51:45;102354.00;;;-0.70
12854;BMP180;6495;51.808;7.478;2023-03-01T02:54:25;102347.00;;;-0.70
12854;BMP180;6495;51.808;7.478;2023-03-01T02:56:55;102337.00;;;-0.80
12854;BMP180;6495;51.808;7.478;2023-03-01T02:59:29;102348.00;;;-0.80
12854;BMP180;6495;51.808;7.478;2023-03-01T03:02:00;102340.00;;;-0.70
12854;BMP180;6495;51.808;7.478;2023-03-01T03:04:29;102350.00;;;-0.80
12854;BMP180;6495;51.808;7.478;2023-03-01T03:06:57;102346.00;;;-0.80
12854;BMP180;6495;51.808;7.478;2023-03-01T03:09:26;102350.00;;;-0.80
12854;BMP180;6495;51.808;7.478;2023-03-01T03:11:56;102346.00;;;-0.80
12854;BMP180;6495;51.808;7.478;2023-03-01T03:14:24;102334.00;;;-0.70
12854;BMP180;6495;51.808;7.478;2023-03-01T03:16:53;102344.00;;;-0.80
12854;BMP180;6495;51.808;7.478;2023-03-01T03:19:22;102331.00;;;-0.80
12854;BMP180;6495;51.808;7.478;2023-03-01T03:21:51;102330.00;;;-0.80
12854;BMP180;6495;51.808;7.478;2023-03-01T03:24:19;102331.00;;;-0.80
12854;BMP180;6495;51.808;7.478;2023-03-01T03:26:47;102328.00;;;-0.80
12854;BMP180;6495;51.808;7.478;2023-03-01T03:29:15;102320.00;;;-0.90
12854;BMP180;6495;51.808;7.478;2023-03-01T03:31:44;102319.00;;;-0.90
12854;BMP180;6495;51.808;7.478;2023-03-01T03:34:12;102320.00;;;-0.90
12854;BMP180;6495;51.808;7.478;2023-03-01T03:36:46;102320.00;;;-1.00
12854;BMP180;6495;51.808;7.478;2023-03-01T03:39:14;102324.00;;;-1.00
12854;BMP180;6495;51.808;7.478;2023-03-01T03:41:42;102310.00;;;-1.00
12854;BMP180;6495;51.808;7.478;2023-03-01T03:44:10;102316.00;;;-1.10
12854;BMP180;6495;51.808;7.478;2023-03-01T03:46:39;102312.00;;;-1.10
12854;BMP180;6495;51.808;7.478;2023-03-01T03:49:07;102308.00;;;-1.10
12854;BMP180;6495;51.808;7.478;2023-03-01T03:51:35;102301.00;;;-1.20
12854;BMP180;6495;51.808;7.478;2023-03-01T03:54:04;102304.00;;;-1.20
12854;BMP180;6495;51.808;7.478;2023-03-01T03:56:33;102300.00;;;-1.20
12854;BMP180;6495;51.808;7.478;2023-03-01T03:59:01;102302.00;;;-1.20
12854;BMP180;6495;51.808;7.478;2023-03-01T04:01:29;102321.00;;;-1.10
12854;BMP180;6495;51.808;7.478;2023-03-01T04:03:58;102303.00;;;-1.20
12854;BMP180;6495;51.808;7.478;2023-03-01T04:06:31;102309.00;;;-1.20
12854;BMP180;6495;51.808;7.478;2023-03-01T04:08:59;102299.00;;;-1.20
12854;BMP180;6495;51.808;7.478;2023-03-01T04:11:31;102298.00;;;-1.20
12854;BMP180;6495;51.808;7.478;2023-03-01T04:14:01;102301.00;;;-1.20
12854;BMP180;6495;51.808;7.478;2023-03-01T04:16:31;102297.00;;;-1.20
12854;BMP180;6495;51.808;7.478;2023-03-01T04:19:00;102294.00;;;-1.30
12854;BMP180;6495;51.808;7.478;2023-03-01T04:21:28;102290.00;;;-1.30
12854;BMP180;6495;51.808;7.478;2023-03-01T04:23:56;102286.00;;;-1.30
12854;BMP180;6495;51.808;7.478;2023-03-01T04:26:24;102290.00;;;-1.30
12854;BMP180;6495;51.808;7.478;2023-03-01T04:28:55;102284.00;;;-1.30
12854;BMP180;6495;51.808;7.478;2023-03-01T04:31:25;102281.00;;;-1.30
12854;BMP180;6495;51.808;7.478;2023-03-01T04:33:55;102281.00;;;-1.20
12854;BMP180;6495;51.808;7.478;2023-03-01T04:36:26;102280.00;;;-1.30
12854;BMP180;6495;51.808;7.478;2023-03-01T04:38:55;102288.00;;;-1.30
12854;BMP180;6495;51.808;7.478;2023-03-01T04:41:25;102281.00;;;-1.30
12854;BMP180;6495;51.808;7.478;2023-03-01T04:43:55;102287.00;;;-1.30
12854;BMP180;6495;51.808;7.478;2023-03-01T04:46:23;102279.00;;;-1.30
12854;BMP180;6495;51.808;7.478;2023-03-01T04:48:52;102282.00;;;-1.30
12854;BMP180;6495;51.808;7.478;2023-03-01T04:51:20;102271.00;;;-1.30
12854;BMP180;6495;51.808;7.478;2023-03-01T04:53:48;102284.00;;;-1.30
12854;BMP180;6495;51.808;7.478;2023-03-01T04:56:17;102273.00;;;-1.30
12854;BMP180;6495;51.808;7.478;2023-03-01T04:58:46;102281.00;;;-1.30
12854;BMP180;6495;51.808;7.478;2023-03-01T05:01:18;102288.00;;;-1.20
12854;BMP180;6495;51.808;7.478;2023-03-01T05:03:49;102288.00;;;-1.20
12854;BMP180;6495;51.808;7.478;2023-03-01T05:06:20;102285.00;;;-1.20
12854;BMP180;6495;51.808;7.478;2023-03-01T05:08:48;102279.00;;;-1.20
12854;BMP180;6495;51.808;7.478;2023-03-01T05:11:16;102278.00;;;-1.20
12854;BMP180;6495;51.808;7.478;2023-03-01T05:13:45;102279.00;;;-1.30
12854;BMP180;6495;51.808;7.478;2023-03-01T05:16:14;102271.00;;;-1.30
12854;BMP180;6495;51.808;7.478;2023-03-01T05:18:43;102279.00;;;-1.30
12854;BMP180;6495;51.808;7.478;2023-03-01T05:21:14;102284.00;;;-1.30
12854;BMP180;6495;51.808;7.478;2023-03-01T05:23:43;102274.00;;;-1.30
12854;BMP180;6495;51.808;7.478;2023-03-01T05:26:14;102279.00;;;-1.30
12854;BMP180;6495;51.808;7.478;2023-03-01T05:28:54;102276.00;;;-1.30
12854;BMP180;6495;51.808;7.478;2023-03-01T05:31:27;102276.00;;;-1.30
12854;BMP180;6495;51.808;7.478;2023-03-01T05:33:57;102276.00;;;-1.30
12854;BMP180;6495;51.808;7.478;2023-03-01T05:36:25;102283.00;;;-1.30
12854;BMP180;6495;51.808;7.478;2023-03-01T05:38:53;102284.00;;;-1.30
12854;BMP180;6495;51.808;7.478;2023-03-01T05:41:22;102285.00;;;-1.30
12854;BMP180;6495;51.808;7.478;2023-03-01T05:43:50;102274.00;;;-1.30
12854;BMP180;6495;51.808;7.478;2023-03-01T05:46:18;102276.00;;;-1.30
12854;BMP180;6495;51.808;7.478;2023-03-01T05:48:48;102275.00;;;-1.30
12854;BMP180;6495;51.808;7.478;2023-03-01T05:51:16;102276.00;;;-1.30
12854;BMP180;6495;51.808;7.478;2023-03-01T05:53:45;102274.00;;;-1.30
12854;BMP180;6495;51.808;7.478;2023-03-01T05:56:13;102275.00;;;-1.30
12854;BMP180;6495;51.808;7.478;2023-03-01T05:58:41;102272.00;;;-1.30
12854;BMP180;6495;51.808;7.478;2023-03-01T06:01:12;102265.00;;;-1.30
12854;BMP180;6495;51.808;7.478;2023-03-01T06:03:40;102276.00;;;-1.30
12854;BMP180;6495;51.808;7.478;2023-03-01T06:06:10;102261.00;;;-1.30
12854;BMP180;6495;51.808;7.478;2023-03-01T06:08:38;102255.00;;;-1.40
12854;BMP180;6495;51.808;7.478;2023-03-01T06:11:06;102260.00;;;-1.40
12854;BMP180;6495;51.808;7.478;2023-03-01T06:13:34;102254.00;;;-1.40
12854;BMP180;6495;51.808;7.478;2023-03-01T06:16:05;102255.00;;;-1.40
12854;BMP180;6495;51.808;7.478;2023-03-01T06:18:34;102257.00;;;-1.40
12854;BMP180;6495;51.808;7.478;2023-03-01T06:21:03;102258.00;;;-1.40
12854;BMP180;6495;51.808;7.478;2023-03-01T06:23:32;102251.00;;;-1.40
12854;BMP180;6495;51.808;7.478;2023-03-01T06:26:06;102254.00;;;-1.40
12854;BMP180;6495;51.808;7.478;2023-03-01T06:28:35;102258.00;;;-1.40
12854;BMP180;6495;51.808;7.478;2023-03-01T06:31:04;102254.00;;;-1.40
12854;BMP180;6495;51.808;7.478;2023-03-01T06:33:35;102256.00;;;-1.40
12854;BMP180;6495;51.808;7.478;2023-03-01T06:36:04;102265.00;;;-1.40
12854;BMP180;6495;51.808;7.478;2023-03-01T06:38:34;102264.00;;;-1.30
12854;BMP180;6495;51.808;7.478;2023-03-01T06:41:02;102264.00;;;-1.30
12854;BMP180;6495;51.808;7.478;2023-03-01T06:43:31;102271.00;;;-1.20
12854;BMP180;6495;51.808;7.478;2023-03-01T06:45:59;102269.00;;;-1.20
12854;BMP180;6495;51.808;7.478;2023-03-01T06:48:27;102269.00;;;-1.20
12854;BMP180;6495;51.808;7.478;2023-03-01T06:50:58;102268.00;;;-1.20
12854;BMP180;6495;51.808;7.478;2023-03-01T06:53:27;102267.00;;;-1.20
12854;BMP180;6495;51.808;7.478;2023-03-01T06:55:58;102262.00;;;-1.20
12854;BMP180;6495;51.808;7.478;2023-03-01T06:58:27;102268.00;;;-1.20
12854;BMP180;6495;51.808;7.478;2023-03-01T07:00:55;102262.00;;;-1.20
12854;BMP180;6495;51.808;7.478;2023-03-01T07:03:23;102268.00;;;-1.20
12854;BMP180;6495;51.808;7.478;2023-03-01T07:05:51;102265.00;;;-1.20
12854;BMP180;6495;51.808;7.478;2023-03-01T07:08:20;102264.00;;;-1.10
12854;BMP180;6495;51.808;7.478;2023-03-01T07:10:54;102267.00;;;-1.10
12854;BMP180;6495;51.808;7.478;2023-03-01T07:13:24;102268.00;;;-1.10
12854;BMP180;6495;51.808;7.478;2023-03-01T07:15:52;102255.00;;;-1.00
12854;BMP180;6495;51.808;7.478;2023-03-01T07:18:20;102256.00;;;-1.00
12854;BMP180;6495;51.808;7.478;2023-03-01T07:20:49;102255.00;;;-0.90
12854;BMP180;6495;51.808;7.478;2023-03-01T07:23:17;102259.00;;;-0.80
12854;BMP180;6495;51.808;7.478;2023-03-01T07:25:51;102256.00;;;-0.80
12854;BMP180;6495;51.808;7.478;2023-03-01T07:28:24;102260.00;;;-0.70
12854;BMP180;6495;51.808;7.478;2023-03-01T07:30:53;102263.00;;;-0.70
12854;BMP180;6495;51.808;7.478;2023-03-01T07:33:21;102265.00;;;-0.60
12854;BMP180;6495;51.808;7.478;2023-03-01T07:35:56;102269.00;;;-0.50
12854;BMP180;6495;51.808;7.478;2023-03-01T07:38:26;102258.00;;;-0.50
12854;BMP180;6495;51.808;7.478;2023-03-01T07:40:57;102264.00;;;-0.40
12854;BMP180;6495;51.808;7.478;2023-03-01T07:43:28;102262.00;;;-0.40
12854;BMP180;6495;51.808;7.478;2023-03-01T07:45:59;102251.00;;;-0.30
12854;BMP180;6495;51.808;7.478;2023-03-01T07:48:29;102262.00;;;-0.30
12854;BMP180;6495;51.808;7.478;2023-03-01T07:50:58;102255.00;;;-0.20
12854;BMP180;6495;51.808;7.478;2023-03-01T07:53:27;102258.00;;;-0.10
12854;BMP180;6495;51.808;7.478;2023-03-01T07:56:03;102266.00;;;0.00
12854;BMP180;6495;51.808;7.478;2023-03-01T07:58:34;102268.00;;;0.00
12854;BMP180;6495;51.808;7.478;2023-03-01T08:01:03;102264.00;;;0.10
12854;BMP180;6495;51.808;7.478;2023-03-01T08:03:32;102270.00;;;0.20
12854;BMP180;6495;51.808;7.478;2023-03-01T08:06:00;102272.00;;;0.30
12854;BMP180;6495;51.808;7.478;2023-03-01T08:08:29;102270.00;;;0.50
12854;BMP180;6495;51.808;7.478;2023-03-01T08:10:58;102277.00;;;0.50
12854;BMP180;6495;51.808;7.478;2023-03-01T08:13:27;102273.00;;;0.60
12854;BMP180;6495;51.808;7.478;2023-03-01T08:16:01;102272.00;;;0.70
12854;BMP180;6495;51.808;7.478;2023-03-01T08:18:30;102262.00;;;0.90
12854;BMP180;6495;51.808;7.478;2023-03-01T08:21:02;102271.00;;;1.00
12854;BMP180;6495;51.808;7.478;2023-03-01T08:23:31;102274.00;;;1.10
12854;BMP180;6495;51.808;7.478;2023-03-01T08:26:08;102273.00;;;1.10
12854;BMP180;6495;51.808;7.478;2023-03-01T08:28:37;102279.00;;;1.30
12854;BMP180;6495;51.808;7.478;2023-03-01T08:31:16;102271.00;;;1.40
12854;BMP180;6495;51.808;7.478;2023-03-01T08:33:47;102270.00;;;1.40
12854;BMP180;6495;51.808;7.478;2023-03-01T08:36:18;102272.00;;;1.50
12854;BMP180;6495;51.808;7.478;2023-03-01T08:38:47;102267.00;;;1.60
12854;BMP180;6495;51.808;7.478;2023-03-01T08:41:16;102259.00;;;1.60
12854;BMP180;6495;51.808;7.478;2023-03-01T08:43:44;102269.00;;;1.80
12854;BMP180;6495;51.808;7.478;2023-03-01T08:46:14;102268.00;;;1.90
12854;BMP180;6495;51.808;7.478;2023-03-01T08:48:43;102264.00;;;2.10
12854;BMP180;6495;51.808;7.478;2023-03-01T08:51:14;102263.00;;;2.20
12854;BMP180;6495;51.808;7.478;2023-03-01T08:53:43;102260.00;;;2.30
12854;BMP180;6495;51.808;7.478;2023-03-01T08:56:12;102253.00;;;2.30
12854;BMP180;6495;51.808;7.478;2023-03-01T08:58:43;102266.00;;;2.50
12854;BMP180;6495;51.808;7.478;2023-03-01T09:01:15;102258.00;;;2.60
12854;BMP180;6495;51.808;7.478;2023-03-01T09:03:45;102255.00;;;2.70
12854;BMP180;6495;51.808;7.478;2023-03-01T09:06:14;102266.00;;;2.70
12854;BMP180;6495;51.808;7.478;2023-03-01T09:08:44;102258.00;;;2.80
12854;BMP180;6495;51.808;7.478;2023-03-01T09:11:15;102261.00;;;3.00
12854;BMP180;6495;51.808;7.478;2023-03-01T09:13:45;102267.00;;;3.00
12854;BMP180;6495;51.808;7.478;2023-03-01T09:16:18;102265.00;;;3.10
12854;BMP180;6495;51.808;7.478;2023-03-01T09:18:49;102260.00;;;3.30
12854;BMP180;6495;51.808;7.478;2023-03-01T09:21:20;102254.00;;;3.30
12854;BMP180;6495;51.808;7.478;2023-03-01T09:24:06;102268.00;;;3.40
12854;BMP180;6495;51.808;7.478;2023-03-01T09:26:35;102260.00;;;3.50
12854;BMP180;6495;51.808;7.478;2023-03-01T09:29:03;102258.00;;;3.60
12854;BMP180;6495;51.808;7.478;2023-03-01T09:31:32;102255.00;;;3.70
12854;BMP180;6495;51.808;7.478;2023-03-01T09:34:00;102260.00;;;3.80
12854;BMP180;6495;51.808;7.478;2023-03-01T09:36:28;102255.00;;;3.80
12854;BMP180;6495;51.808;7.478;2023-03-01T09:38:57;102254.00;;;3.80
12854;BMP180;6495;51.808;7.478;2023-03-01T09:41:46;102256.00;;;3.90
12854;BMP180;6495;51.808;7.478;2023-03-01T09:44:29;102250.00;;;4.00
12854;BMP180;6495;51.808;7.478;2023-03-01T09:47:00;102251.00;;;4.00
12854;BMP180;6495;51.808;7.478;2023-03-01T09:49:33;102251.00;;;4.00
12854;BMP180;6495;51.808;7.478;2023-03-01T09:52:18;102248.00;;;4.10
12854;BMP180;6495;51.808;7.478;2023-03-01T09:54:54;102247.00;;;4.30
12854;BMP180;6495;51.808;7.478;2023-03-01T09:57:33;102240.00;;;4.30
12854;BMP180;6495;51.808;7.478;2023-03-01T10:00:22;102241.00;;;4.40
12854;BMP180;6495;51.808;7.478;2023-03-01T10:03:00;102240.00;;;4.50
12854;BMP180;6495;51.808;7.478;2023-03-01T10:05:41;102236.00;;;4.50
12854;BMP180;6495;51.808;7.478;2023-03-01T10:08:27;102231.00;;;4.70
12854;BMP180;6495;51.808;7.478;2023-03-01T10:10:59;102231.00;;;4.70
12854;BMP180;6495;51.808;7.478;2023-03-01T10:13:40;102240.00;;;4.60
12854;BMP180;6495;51.808;7.478;2023-03-01T10:16:16;102241.00;;;4.60
12854;BMP180;6495;51.808;7.478;2023-03-01T10:19:00;102224.00;;;4.60
12854;BMP180;6495;51.808;7.478;2023-03-01T10:21:30;102233.00;;;4.70
12854;BMP180;6495;51.808;7.478;2023-03-01T10:24:10;102239.00;;;4.80
12854;BMP180;6495;51.808;7.478;2023-03-01T10:26:49;102231.00;;;5.00
12854;BMP180;6495;51.808;7.478;2023-03-01T10:29:23;102227.00;;;5.10
12854;BMP180;6495;51.808;7.478;2023-03-01T10:31:55;102226.00;;;5.30
12854;BMP180;6495;51.808;7.478;2023-03-01T10:34:30;102222.00;;;5.50
12854;BMP180;6495;51.808;7.478;2023-03-01T10:37:10;102229.00;;;5.50
12854;BMP180;6495;51.808;7.478;2023-03-01T10:40:00;102224.00;;;5.50
12854;BMP180;6495;51.808;7.478;2023-03-01T10:42:35;102228.00;;;5.60
12854;BMP180;6495;51.808;7.478;2023-03-01T10:45:27;102217.00;;;5.60
12854;BMP180;6495;51.808;7.478;2023-03-01T10:48:11;102212.00;;;5.60
12854;BMP180;6495;51.808;7.478;2023-03-01T10:50:43;102221.00;;;5.70
12854;BMP180;6495;51.808;7.478;2023-03-01T10:53:26;102219.00;;;5.80
12854;BMP180;6495;51.808;7.478;2023-03-01T10:56:03;102204.00;;;5.70
12854;BMP180;6495;51.808;7.478;2023-03-01T10:58:33;102212.00;;;5.80
12854;BMP180;6495;51.808;7.478;2023-03-01T11:01:06;102201.00;;;5.90
12854;BMP180;6495;51.808;7.478;2023-03-01T11:03:38;102183.00;;;5.90
12854;BMP180;6495;51.808;7.478;2023-03-01T11:06:21;102181.00;;;5.90
12854;BMP180;6495;51.808;7.478;2023-03-01T11:08:50;102179.00;;;5.90
12854;BMP180;6495;51.808;7.478;2023-03-01T11:11:34;102189.00;;;6.00
12854;BMP180;6495;51.808;7.478;2023-03-01T11:14:07;102196.00;;;6.20
12854;BMP180;6495;51.808;7.478;2023-03-01T11:17:01;102184.00;;;6.10
12854;BMP180;6495;51.808;7.478;2023-03-01T11:19:29;102182.00;;;6.10
12854;BMP180;6495;51.808;7.478;2023-03-01T11:22:04;102173.00;;;6.10
12854;BMP180;6495;51.808;7.478;2023-03-01T11:24:40;102173.00;;;6.10
12854;BMP180;6495;51.808;7.478;2023-03-01T11:27:23;102178.00;;;6.30
12854;BMP180;6495;51.808;7.478;2023-03-01T11:29:57;102175.00;;;6.20
12854;BMP180;6495;51.808;7.478;2023-03-01T11:32:36;102171.00;;;6.30
12854;BMP180;6495;51.808;7.478;2023-03-01T11:35:17;102167.00;;;6.50
12854;BMP180;6495;51.808;7.478;2023-03-01T11:38:02;102179.00;;;6.50
12854;BMP180;6495;51.808;7.478;2023-03-01T11:40:41;102174.00;;;6.50
12854;BMP180;6495;51.808;7.478;2023-03-01T11:43:20;102176.00;;;6.50
12854;BMP180;6495;51.808;7.478;2023-03-01T11:49:53;102181.00;;;6.70
12854;BMP180;6495;51.808;7.478;2023-03-01T11:52:35;102171.00;;;6.60
12854;BMP180;6495;51.808;7.478;2023-03-01T11:55:38;102169.00;;;6.70
12854;BMP180;6495;51.808;7.478;2023-03-01T11:58:29;102177.00;;;6.70
12854;BMP180;6495;51.808;7.478;2023-03-01T12:01:21;102173.00;;;6.80
12854;BMP180;6495;51.808;7.478;2023-03-01T12:04:23;102171.00;;;6.80
12854;BMP180;6495;51.808;7.478;2023-03-01T12:06:59;102177.00;;;6.80
12854;BMP180;6495;51.808;7.478;2023-03-01T12:09:47;102165.00;;;6.90
12854;BMP180;6495;51.808;7.478;2023-03-01T12:12:38;102163.00;;;6.90
12854;BMP180;6495;51.808;7.478;2023-03-01T12:15:37;102180.00;;;6.90
12854;BMP180;6495;51.808;7.478;2023-03-01T12:18:31;102162.00;;;6.80
12854;BMP180;6495;51.808;7.478;2023-03-01T12:21:18;102150.00;;;6.70
12854;BMP180;6495;51.808;7.478;2023-03-01T12:24:14;102153.00;;;6.80
12854;BMP180;6495;51.808;7.478;2023-03-01T12:26:55;102143.00;;;7.00
12854;BMP180;6495;51.808;7.478;2023-03-01T12:29:36;102139.00;;;7.10
12854;BMP180;6495;51.808;7.478;2023-03-01T12:32:33;102144.00;;;7.10
12854;BMP180;6495;51.808;7.478;2023-03-01T12:36:02;102144.00;;;7.20
12854;BMP180;6495;51.808;7.478;2023-03-01T12:38:41;102129.00;;;7.30
12854;BMP180;6495;51.808;7.478;2023-03-01T12:41:40;102130.00;;;7.30
12854;BMP180;6495;51.808;7.478;2023-03-01T12:47:30;102126.00;;;7.40
12854;BMP180;6495;51.808;7.478;2023-03-01T12:50:05;102125.00;;;7.30
12854;BMP180;6495;51.808;7.478;2023-03-01T12:52:44;102121.00;;;7.20
12854;BMP180;6495;51.808;7.478;2023-03-01T12:55:26;102113.00;;;7.20
12854;BMP180;6495;51.808;7.478;2023-03-01T12:58:07;102113.00;;;7.20
12854;BMP180;6495;51.808;7.478;2023-03-01T13:00:51;102100.00;;;7.10
12854;BMP180;6495;51.808;7.478;2023-03-01T13:03:30;102080.00;;;6.90
12854;BMP180;6495;51.808;7.478;2023-03-01T13:06:09;102076.00;;;6.90
12854;BMP180;6495;51.808;7.478;2023-03-01T13:08:48;102086.00;;;6.80
12854;BMP180;6495;51.808;7.478;2023-03-01T13:11:20;102077.00;;;6.90
12854;BMP180;6495;51.808;7.478;2023-03-01T13:13:50;102092.00;;;6.90
12854;BMP180;6495;51.808;7.478;2023-03-01T13:16:41;102086.00;;;6.90
12854;BMP180;6495;51.808;7.478;2023-03-01T13:19:17;102081.00;;;6.90
12854;BMP180;6495;51.808;7.478;2023-03-01T13:21:48;102091.00;;;6.90
12854;BMP180;6495;51.808;7.478;2023-03-01T13:24:29;102087.00;;;7.00
12854;BMP180;6495;51.808;7.478;2023-03-01T13:27:25;102078.00;;;7.00
12854;BMP180;6495;51.808;7.478;2023-03-01T13:29:57;102075.00;;;6.90
12854;BMP180;6495;51.808;7.478;2023-03-01T13:32:33;102078.00;;;6.90
12854;BMP180;6495;51.808;7.478;2023-03-01T13:35:44;102071.00;;;6.90
12854;BMP180;6495;51.808;7.478;2023-03-01T13:38:44;102065.00;;;6.90
12854;BMP180;6495;51.808;7.478;2023-03-01T13:41:14;102063.00;;;6.90
12854;BMP180;6495;51.808;7.478;2023-03-01T13:43:44;102059.00;;;6.90
12854;BMP180;6495;51.808;7.478;2023-03-01T13:46:20;102056.00;;;7.00
12854;BMP180;6495;51.808;7.478;2023-03-01T13:48:53;102051.00;;;7.00
12854;BMP180;6495;51.808;7.478;2023-03-01T13:51:27;102067.00;;;7.00
12854;BMP180;6495;51.808;7.478;2023-03-01T13:53:58;102065.00;;;7.00
12854;BMP180;6495;51.808;7.478;2023-03-01T13:56:33;102048.00;;;6.90
12854;BMP180;6495;51.808;7.478;2023-03-01T13:59:05;102042.00;;;6.90
12854;BMP180;6495;51.808;7.478;2023-03-01T14:01:35;102048.00;;;6.90
12854;BMP180;6495;51.808;7.478;2023-03-01T14:04:20;102030.00;;;6.90
12854;BMP180;6495;51.808;7.478;2023-03-01T14:06:50;102035.00;;;6.90
12854;BMP180;6495;51.808;7.478;2023-03-01T14:09:22;102037.00;;;6.90
12854;BMP180;6495;51.808;7.478;2023-03-01T14:12:23;102030.00;;;6.90
12854;BMP180;6495;51.808;7.478;2023-03-01T14:15:00;102026.00;;;6.90
12854;BMP180;6495;51.808;7.478;2023-03-01T14:17:52;102014.00;;;6.90
12854;BMP180;6495;51.808;7.478;2023-03-01T14:20:27;102014.00;;;6.90
12854;BMP180;6495;51.808;7.478;2023-03-01T14:22:59;102010.00;;;6.90
12854;BMP180;6495;51.808;7.478;2023-03-01T14:25:32;102015.00;;;6.90
12854;BMP180;6495;51.808;7.478;2023-03-01T14:28:14;102008.00;;;6.90
12854;BMP180;6495;51.808;7.478;2023-03-01T14:30:45;102006.00;;;6.90
12854;BMP180;6495;51.808;7.478;2023-03-01T14:33:25;102007.00;;;6.90
12854;BMP180;6495;51.808;7.478;2023-03-01T14:35:57;102005.00;;;6.90
12854;BMP180;6495;51.808;7.478;2023-03-01T14:38:34;101997.00;;;7.00
12854;BMP180;6495;51.808;7.478;2023-03-01T14:41:07;101991.00;;;6.90
12854;BMP180;6495;51.808;7.478;2023-03-01T14:43:38;101999.00;;;6.90
12854;BMP180;6495;51.808;7.478;2023-03-01T14:46:19;101995.00;;;6.90
12854;BMP180;6495;51.808;7.478;2023-03-01T14:48:50;101987.00;;;6.90
12854;BMP180;6495;51.808;7.478;2023-03-01T14:51:20;101989.00;;;6.90
12854;BMP180;6495;51.808;7.478;2023-03-01T14:53:51;101975.00;;;6.80
12854;BMP180;6495;51.808;7.478;2023-03-01T14:56:19;101981.00;;;6.80
12854;BMP180;6495;51.808;7.478;2023-03-01T14:58:52;101975.00;;;6.80
12854;BMP180;6495;51.808;7.478;2023-03-01T15:01:21;101977.00;;;6.80